Bienvenidos al Sitio de AASANA BOLIVIA
Aeropuerto: Internaciónal El Alto
HORA UTC 13:00
09°C
Humedad: 38%

Fecha: 23/05/2019


Sin Fenómeno
ESTACIÓN:SLLP
LATITUD|LONGITUD:16-08S|68-10W
HORA UTC:13:00
DESCRIPCIÓN: SLLP 231300Z 28006KT 250V320 9999 FEW017 09/M04 Q1039 A3070 629.2 HR38 P0381 AC NOSIG=
Regional La Paz
EstaciónAerodromoSit. GeograficaDescripción
SLSBSan Borja14-51S-66-44W SLSB 231315Z 14008KT 1500 -TSRA BKN005 FEW020CB OVC070 18/18 Q1017 A3004 HR100 TS CB ON STN RWY WET INOP=
SLLPInternaciónal El Alto16-08S-68-10W SLLP 231300Z 28006KT 250V320 9999 FEW017 09/M04 Q1039 A3070 629.2 HR38 P0381 AC NOSIG=
SLUYUyuni20-27S-62-52W SLUY 231300Z 36007KT 9999 NSC 05/M09 Q1034 A3057 659.1 HR37=
SLRYReyes14-18S-67-21W SLRY 231300Z 14003KT 4000 -DZ BKN005 BKN012 OVC070 19/19 Q1015 A3000 HR96 RWY WET INOP=
SLOROruro17-57S-67-04W SLOR 231300Z 07003KT 6000 FEW070 07/M02 Q1036 A3062 657.2 HR51 VIS RED FU N/NE/E/SE RESTO 9000 CI=
SLRQRurrenabaque14-25S-67-29W SLRQ 231300Z 00000KT 9999 BKN007 BKN012 OVC070 20/20 Q1016 A3001 992.0 HR96 RERA=
SLCNCharaña17-35S-69-25W
SLAPApolo14-44S-68-24W SLAP 231300Z 00000KT 9999 SCT017 SCT070 19/17 Q1021 A3015 HR88 CC=
SLCCCopacabana - Tito Yupanqui16-11S-69-05W SLCC 262000Z 18003KT 9999 FEW020 FEW023CB SCT200 14/07 Q1024 A3024 636.7 CB/SH/SW/W/NW AC HR61=
Regional Cochabamba
EstaciónAerodromoSit. GeograficaDescripción
SLAGMonteagudo19-49S-63-58W SLAG 211700Z 14005KT 9999 FEW010 SCT025 BKN050 23/18 Q1017 A3005 A3005 889.8 HR72=
SLVMVillamontes21-15S-63-24W SLVM 231300Z 18005KT 9999 BKN015 OVC070 12/09 Q1025 A3028 HR83=
SLPOPotosí19-32S-65-43W SLPO 231000Z NIL=
SLALAlcantari19-14S-65-09W SLAL 231300Z 00000KT 9999 FEW002 SCT070 09/06 Q1028 A3038 703.8 HR83 ST BAJOS SW CI=
SLTJTarija21-33S-64-42W SLTJ 231300Z 13006KT 9999 BKN023 09/04 Q1023 A3022 817.7 HR73=
SLYAYacuiba21-57S-63-39W SLYA 231300Z 21006KT 6000 VCSH SCT005 BKN010 OVC070 09/09 Q1023 A3022 947.3 HR98 SH TODAS DIRECC=
SLCBCochabamba17-25S-66-10W SLCB 231300Z 11004KT 9000 FEW080 BKN200 17/08 Q1025 A3029 752.0 HR54 FU NOSIG=
SLBJBermejo22-46S-64-18W
SLHIChimore16-58S-65-09W SLHI 231300Z 15008KT 5000 -RADZ SCT006 BKN010 OVC070 15/15 Q1020 A3015 993.5 HR98=
Regional Santa Cruz
EstaciónAerodromoSit. GeograficaDescripción
SLASAscención de Guarayos15-55S-63-09W SLAS 231300Z 18015G25KT 9999 BKN017 OVC070 15/13 Q1021 A3015 HR87 RWY NML=
SLETEl Trompillo17-48S-63-10W SLET 231300Z 16011G22KT 8000 -DZ SCT006 BKN015 OVC070 12/11 Q1021 A3016 HR94 NOSIG=
SLJVSan Javier16-16S-62-28W SLJV 231300Z 18016KT 9999 OVC013 12/11 Q1018 A3006 HR93 RWY NML =
SLCPConcepción16-08S-62-01W SLCP 231300Z 18012KT 9999 OVC006 13/12 Q1022 A3018 HR94 RWY HUM OPR=
SLSISan Ignacio de Velasco16-23S-60-57W SLSI 231300Z 21006KT 9999 BKN010 OVC070 13/12 Q1018 A3006 HR94 RWY NML=
SLTISan Matías16-20S-58-24W SLTI 231300Z 18010KT 9999 OVC012 22/18 Q1022 A3018 HR81 RWY NML =
SLJESan José de Chiquitos17-49S-60-44W SLJE 231300Z 18012KT 9999 OVC012 13/10 Q1023 A3021 HR83 RWY NML =
SLVGValle Grande18-28S-64-05W SLVG 231300Z 18004KT 3000 BR OVC013 09/09 Q1025 A3027 HR94 REFG RWY NML=
SLRBRoboré18-19S-59-45W SLRB 231300Z 00000KT 9999 OVC006 12/12 Q1022 A3018 HR100 RWY WET OPR=
SLPSPuerto Suárez18-58S-57-49W SLPS 231300Z 18010KT 9999 BKN010 OVC070 15/13 Q1019 A3010 HR90 REDZ=
SLVRInternaciónal Viru Viru17-38S-63-08W SLVR 231300Z 17010G22KT 7000 -DZ SCT006 BKN017 OVC070 12/11 Q1021 A3017 HR92 NOSIG=
SLCACamiri20-00S-63-31W SLCA 231300Z 00000KT 4000 VCSH OVC005 10/09 Q1025 A3027 HR96 SH SE/SW/W/NW REDZ RWY HUM OPR=
Regional Beni
EstaciónAerodromoSit. GeograficaDescripción
SLBUBaures13-39S-63-42W SLBU 231300Z 18006KT 9999 BKN008 OVC070 22/21 Q1015 A2997 HR94 RWY NML=
SLRASan Ramón13-15S-64-36W SLRA 231300Z 14005KT 7000 -DZ BKN005 BKN070 22/22 Q1014 A2995 HR98 RWY HUM OPR=
SLMGSan Magdalena13-15S-64-36W SLMG 231300Z 16006KT 3000 BR BKN005 OVC070 23/22 Q1015 A2998 HR96 RWY WET OPR C210=
SLSRSanta Rosa14-04S-66-47W SLSR 231300Z 12008KT 8000 VCSH BKN010 FEW023CB OVC070 21/20 Q1017 A3005 HR96 CB/SH SE/S RWY NML=
SLRIRiberalta11-00S-66-04W SLRI 231300Z 00000KT 9999 SCT017 BKN200 26/24 Q1015 A3000 HR88=
SLGMGuayaramerín10-53S-65-23W SLGM 231300Z 18004KT 9999 SCT017 27/24 Q1014 A2996 HR88=
SLJOSan Joaquin13-03S-64-39W SLJO 231300Z 18006KT 5000 VCSH BKN005 OVC070 23/22 Q1014 A2997 HR97 SH SE/S/SW/W RWY NML=
SLSMSan Ignacio de Moxos14-57S-65-38W SLSM 231300Z 15012KT 9999 BKN006 OVC070 17/16 Q1017 A3004 HR91 RWY WET INOP=
SLTRTrinidad14-49S-64-54W SLTR 231300Z 14005KT 9999 BKN008 OVC070 17/15 Q1018 A3007 999.5 HR89 NOSIG=
SLSASanta Ana de Yacuma13-45S-65-26W SLSA 231300Z 16010KT 6000 -DZ BKN005 OVC070 20/20 Q1016 A3001 HR98=
SLCOCobija11-02S-68-47W SLCO 231300Z 00000KT 9999 FEW004 BKN200 25/24 Q1015 A2998 987.8 HR92 AC=